Time;durP1;ratioP1;P1;durP2;ratioP2;P2;SDS_P1;SDS_P2;PMS_P1;PMS_P2;Temp;Humidity;BMP_temperature;BMP_pressure;BME280_temperature;BME280_humidity;BME280_pressure;Samples;Min_cycle;Max_cycle;Signal;HPM_P1;HPM_P2
2023/07/19 00:01:39;;;;;;;7.28;3.03;;;;;;;;;;4948851;28;20221;-70
2023/07/19 00:04:04;;;;;;;2.72;2.38;;;;;;;;;;4946320;28;20202;-71
2023/07/19 00:06:29;;;;;;;5.63;2.42;;;;;;;;;;4952431;28;20754;-70
2023/07/19 00:08:55;;;;;;;6.47;2.60;;;;;;;;;;4952714;28;20193;-71
2023/07/19 00:11:20;;;;;;;4.35;2.55;;;;;;;;;;4953224;28;20211;-71
2023/07/19 00:13:45;;;;;;;2.72;2.30;;;;;;;;;;4951518;28;20569;-70
2023/07/19 00:16:10;;;;;;;4.35;2.20;;;;;;;;;;4951252;28;20966;-71
2023/07/19 00:18:36;;;;;;;4.75;2.42;;;;;;;;;;4953368;28;20193;-71
2023/07/19 00:21:01;;;;;;;5.00;2.70;;;;;;;;;;4950692;28;20589;-70
2023/07/19 00:23:26;;;;;;;6.97;3.00;;;;;;;;;;4972467;28;20855;-70
2023/07/19 00:25:51;;;;;;;3.45;2.65;;;;;;;;;;4949509;28;20216;-70
2023/07/19 00:28:17;;;;;;;3.28;2.78;;;;;;;;;;4953323;28;20307;-70
2023/07/19 00:30:42;;;;;;;7.40;2.75;;;;;;;;;;4951326;28;20184;-69
2023/07/19 00:33:07;;;;;;;5.70;2.63;;;;;;;;;;4977312;23;20956;-71
2023/07/19 00:35:32;;;;;;;2.70;2.47;;;;;;;;;;4983179;28;20183;-72
2023/07/19 00:37:58;;;;;;;4.72;3.03;;;;;;;;;;4972883;28;20191;-71
2023/07/19 00:40:23;;;;;;;4.15;2.60;;;;;;;;;;4968066;28;20682;-71
2023/07/19 00:42:54;;;;;;;4.82;3.17;;;;;;;;;;4956921;28;20212;-71
2023/07/19 00:45:19;;;;;;;3.95;3.08;;;;;;;;;;4952313;28;20683;-71
2023/07/19 00:47:44;;;;;;;7.70;3.53;;;;;;;;;;4953058;28;20316;-72
2023/07/19 00:50:10;;;;;;;6.45;3.60;;;;;;;;;;4954350;28;20568;-72
2023/07/19 00:52:35;;;;;;;4.57;3.10;;;;;;;;;;4955378;28;20210;-71
2023/07/19 00:55:00;;;;;;;3.25;2.88;;;;;;;;;;4952899;28;20636;-71
2023/07/19 00:57:25;;;;;;;3.90;3.00;;;;;;;;;;4953135;28;20309;-71
2023/07/19 00:59:51;;;;;;;3.58;2.90;;;;;;;;;;4953059;28;20279;-71
2023/07/19 01:02:16;;;;;;;10.65;4.10;;;;;;;;;;4951685;28;20208;-70
2023/07/19 01:04:42;;;;;;;3.60;3.17;;;;;;;;;;4951878;28;20197;-71
2023/07/19 01:07:07;;;;;;;5.60;3.58;;;;;;;;;;4950380;28;20912;-71
2023/07/19 01:09:32;;;;;;;3.92;3.42;;;;;;;;;;4952442;28;20185;-71
2023/07/19 01:11:57;;;;;;;5.53;3.22;;;;;;;;;;4971078;28;20200;-71
2023/07/19 01:14:23;;;;;;;4.47;3.33;;;;;;;;;;4952423;28;20319;-71
2023/07/19 01:16:48;;;;;;;6.82;3.50;;;;;;;;;;4952383;28;20678;-71
2023/07/19 01:19:14;;;;;;;3.97;3.38;;;;;;;;;;4953658;28;20251;-71
2023/07/19 01:21:40;;;;;;;6.82;3.67;;;;;;;;;;4950956;28;20714;-71
2023/07/19 01:24:05;;;;;;;4.85;3.55;;;;;;;;;;4950879;28;20188;-72
2023/07/19 01:26:30;;;;;;;5.65;3.13;;;;;;;;;;4952308;28;20189;-72
2023/07/19 01:28:57;;;;;;;5.30;4.10;;;;;;;;;;4949752;28;20181;-71
2023/07/19 01:31:22;;;;;;;4.28;3.72;;;;;;;;;;4952658;28;21361;-71
2023/07/19 01:33:47;;;;;;;5.90;4.75;;;;;;;;;;4949560;28;20188;-71
2023/07/19 01:36:12;;;;;;;6.30;3.65;;;;;;;;;;4950213;28;20860;-71
2023/07/19 01:38:38;;;;;;;4.03;2.88;;;;;;;;;;4952715;28;20192;-72
2023/07/19 01:41:03;;;;;;;4.25;3.45;;;;;;;;;;4950358;28;21795;-71
2023/07/19 01:43:29;;;;;;;3.83;3.33;;;;;;;;;;4950212;28;20449;-71
2023/07/19 01:45:54;;;;;;;5.05;4.10;;;;;;;;;;4954056;28;20571;-71
2023/07/19 01:48:19;;;;;;;7.75;4.45;;;;;;;;;;4963703;28;20662;-71
2023/07/19 01:50:47;;;;;;;4.70;3.58;;;;;;;;;;4953126;28;20559;-71
2023/07/19 01:53:13;;;;;;;8.63;3.65;;;;;;;;;;4950889;28;20263;-71
2023/07/19 01:55:39;;;;;;;7.15;4.10;;;;;;;;;;4953833;28;20192;-72
2023/07/19 01:58:04;;;;;;;7.57;4.43;;;;;;;;;;4950700;28;20204;-72
2023/07/19 02:00:29;;;;;;;5.22;4.03;;;;;;;;;;4950393;28;20352;-72
2023/07/19 02:02:55;;;;;;;5.80;4.32;;;;;;;;;;4952258;28;20633;-72
2023/07/19 02:05:20;;;;;;;4.35;3.88;;;;;;;;;;4955372;28;20189;-72
2023/07/19 02:07:45;;;;;;;5.28;3.65;;;;;;;;;;4954499;28;20192;-72
2023/07/19 02:10:11;;;;;;;6.38;3.75;;;;;;;;;;4951853;28;20236;-72
2023/07/19 02:12:36;;;;;;;6.65;3.80;;;;;;;;;;4949997;28;20255;-72
2023/07/19 02:15:02;;;;;;;7.35;4.40;;;;;;;;;;4950999;28;21081;-72
2023/07/19 02:17:27;;;;;;;5.68;3.80;;;;;;;;;;4951188;28;20188;-72
2023/07/19 02:19:52;;;;;;;4.50;3.30;;;;;;;;;;4951279;28;20232;-72
2023/07/19 02:22:17;;;;;;;7.57;2.95;;;;;;;;;;4953687;28;20663;-71
2023/07/19 02:24:42;;;;;;;6.20;3.42;;;;;;;;;;4954708;28;20303;-71
2023/07/19 02:27:08;;;;;;;5.70;4.30;;;;;;;;;;4953120;28;20197;-71
2023/07/19 02:29:33;;;;;;;8.18;5.40;;;;;;;;;;4955141;28;20185;-71
2023/07/19 02:31:58;;;;;;;5.80;3.70;;;;;;;;;;4952532;28;20219;-71
2023/07/19 02:34:23;;;;;;;4.57;3.72;;;;;;;;;;4953141;28;20288;-71
2023/07/19 02:36:49;;;;;;;6.70;3.85;;;;;;;;;;4951145;28;21130;-71
2023/07/19 02:39:14;;;;;;;9.48;4.63;;;;;;;;;;4952374;28;20275;-71
2023/07/19 02:41:39;;;;;;;5.28;4.22;;;;;;;;;;4951214;28;20221;-71
2023/07/19 02:44:05;;;;;;;9.23;4.68;;;;;;;;;;4951665;28;20302;-71
2023/07/19 02:46:30;;;;;;;7.32;4.43;;;;;;;;;;4953275;28;20188;-71
2023/07/19 02:48:55;;;;;;;7.72;3.72;;;;;;;;;;4950027;28;20185;-71
2023/07/19 02:51:21;;;;;;;5.65;4.68;;;;;;;;;;4952953;28;20184;-71
2023/07/19 02:53:47;;;;;;;10.02;3.60;;;;;;;;;;4951289;28;21042;-71
2023/07/19 02:56:12;;;;;;;8.98;3.97;;;;;;;;;;4951258;28;20255;-71
2023/07/19 02:58:38;;;;;;;6.82;4.18;;;;;;;;;;4950492;28;20192;-71
2023/07/19 03:01:03;;;;;;;8.73;5.22;;;;;;;;;;4951108;28;21181;-71
2023/07/19 03:03:29;;;;;;;5.85;4.07;;;;;;;;;;4950800;28;20208;-71
2023/07/19 03:05:54;;;;;;;7.43;4.95;;;;;;;;;;4951652;28;20953;-71
2023/07/19 03:08:20;;;;;;;7.22;4.20;;;;;;;;;;4948887;28;20909;-71
2023/07/19 03:10:45;;;;;;;7.13;5.13;;;;;;;;;;4949905;28;20188;-71
2023/07/19 03:13:10;;;;;;;7.43;4.90;;;;;;;;;;4949939;28;20303;-71
2023/07/19 03:15:35;;;;;;;7.20;4.88;;;;;;;;;;4949530;28;20228;-72
2023/07/19 03:18:01;;;;;;;7.38;5.75;;;;;;;;;;4949940;28;20277;-72
2023/07/19 03:20:27;;;;;;;7.05;4.60;;;;;;;;;;4980336;28;20212;-72
2023/07/19 03:22:53;;;;;;;11.05;5.07;;;;;;;;;;4949650;28;20201;-72
2023/07/19 03:25:18;;;;;;;6.60;5.05;;;;;;;;;;4949934;28;20185;-73
2023/07/19 03:27:44;;;;;;;7.88;4.95;;;;;;;;;;4951377;28;20190;-72
2023/07/19 03:30:09;;;;;;;8.43;5.30;;;;;;;;;;4951265;28;20223;-72
2023/07/19 03:32:34;;;;;;;8.93;5.72;;;;;;;;;;4980509;28;20319;-72
2023/07/19 03:35:00;;;;;;;7.10;5.40;;;;;;;;;;4952407;28;20246;-72
2023/07/19 03:37:25;;;;;;;6.75;4.90;;;;;;;;;;4951926;28;20549;-72
2023/07/19 03:39:50;;;;;;;7.88;5.15;;;;;;;;;;4951114;28;20629;-72
2023/07/19 03:42:15;;;;;;;9.98;5.78;;;;;;;;;;4951892;28;20267;-72
2023/07/19 03:44:41;;;;;;;7.70;5.25;;;;;;;;;;4951950;28;20188;-72
2023/07/19 03:47:06;;;;;;;13.70;5.65;;;;;;;;;;4951950;28;20214;-72
2023/07/19 03:49:32;;;;;;;8.55;5.00;;;;;;;;;;4948984;28;20303;-72
2023/07/19 03:51:57;;;;;;;9.85;5.13;;;;;;;;;;4951838;28;20232;-72
2023/07/19 03:54:22;;;;;;;5.57;4.88;;;;;;;;;;4951365;28;20251;-71
2023/07/19 03:56:47;;;;;;;9.32;5.55;;;;;;;;;;4951545;28;20184;-71
2023/07/19 03:59:12;;;;;;;7.68;5.53;;;;;;;;;;4952541;28;20670;-72
2023/07/19 04:01:38;;;;;;;7.13;5.30;;;;;;;;;;4950802;28;20227;-72
2023/07/19 04:04:03;;;;;;;7.88;5.43;;;;;;;;;;4951824;28;20191;-73
2023/07/19 04:06:29;;;;;;;7.53;5.82;;;;;;;;;;4951238;28;21100;-72
2023/07/19 04:08:54;;;;;;;9.27;5.45;;;;;;;;;;4950132;28;20187;-72
2023/07/19 04:11:19;;;;;;;9.57;6.28;;;;;;;;;;4952244;28;20220;-72
2023/07/19 04:13:45;;;;;;;7.03;6.10;;;;;;;;;;4950996;28;20201;-72
2023/07/19 04:16:10;;;;;;;9.50;6.35;;;;;;;;;;4950537;28;20216;-72
2023/07/19 04:18:35;;;;;;;6.68;5.30;;;;;;;;;;4965710;28;20944;-72
2023/07/19 04:21:02;;;;;;;11.82;6.25;;;;;;;;;;4952795;28;20259;-72
2023/07/19 04:23:27;;;;;;;6.28;5.57;;;;;;;;;;4951326;28;20339;-73
2023/07/19 04:25:53;;;;;;;11.80;6.80;;;;;;;;;;4952106;28;20280;-72
2023/07/19 04:28:19;;;;;;;12.05;6.43;;;;;;;;;;4949386;28;20219;-72
2023/07/19 04:30:45;;;;;;;7.32;5.88;;;;;;;;;;4952073;28;20663;-72
2023/07/19 04:33:10;;;;;;;7.20;6.50;;;;;;;;;;4950163;28;20232;-72
2023/07/19 04:35:35;;;;;;;10.95;7.47;;;;;;;;;;4952579;28;20191;-72
2023/07/19 04:38:00;;;;;;;11.57;6.10;;;;;;;;;;4953291;28;20216;-72
2023/07/19 04:40:26;;;;;;;7.47;5.85;;;;;;;;;;4951228;28;20205;-72
2023/07/19 04:42:51;;;;;;;6.88;5.95;;;;;;;;;;4951255;28;20212;-72
2023/07/19 04:45:16;;;;;;;10.57;5.85;;;;;;;;;;4950720;28;20194;-72
2023/07/19 04:47:42;;;;;;;6.75;5.47;;;;;;;;;;4948259;28;20203;-72
2023/07/19 04:50:08;;;;;;;9.57;5.80;;;;;;;;;;4946370;28;20279;-71
2023/07/19 04:52:34;;;;;;;7.45;5.03;;;;;;;;;;4950011;28;20264;-72
2023/07/19 04:54:59;;;;;;;10.73;5.43;;;;;;;;;;4952123;28;20245;-72
2023/07/19 04:57:24;;;;;;;7.65;5.55;;;;;;;;;;4954266;28;20188;-72
2023/07/19 04:59:49;;;;;;;11.25;5.10;;;;;;;;;;4954079;28;20681;-72
2023/07/19 05:02:14;;;;;;;6.95;5.32;;;;;;;;;;4953867;28;20292;-73
2023/07/19 05:04:40;;;;;;;7.97;4.97;;;;;;;;;;4954513;28;20215;-71
2023/07/19 05:07:05;;;;;;;6.50;4.80;;;;;;;;;;4954125;28;20208;-71
2023/07/19 05:09:31;;;;;;;8.68;4.63;;;;;;;;;;4953327;28;20180;-72
2023/07/19 05:11:56;;;;;;;6.35;5.30;;;;;;;;;;4948578;28;20856;-73
2023/07/19 05:14:21;;;;;;;7.13;4.93;;;;;;;;;;4950794;28;20191;-72
2023/07/19 05:16:46;;;;;;;13.02;5.03;;;;;;;;;;4951435;28;20192;-73
2023/07/19 05:19:12;;;;;;;7.90;4.35;;;;;;;;;;4951649;28;20666;-72
2023/07/19 05:21:37;;;;;;;7.20;4.68;;;;;;;;;;4952544;28;20567;-72
2023/07/19 05:24:03;;;;;;;6.13;4.25;;;;;;;;;;4950847;28;20564;-72
2023/07/19 05:26:28;;;;;;;4.93;4.05;;;;;;;;;;4952227;28;20646;-72
2023/07/19 05:28:53;;;;;;;5.07;4.32;;;;;;;;;;4967356;28;20288;-73
2023/07/19 05:31:19;;;;;;;5.05;3.97;;;;;;;;;;4953224;28;20250;-72
2023/07/19 05:33:44;;;;;;;7.15;4.35;;;;;;;;;;4951881;28;20211;-72
2023/07/19 05:36:09;;;;;;;6.22;4.15;;;;;;;;;;4952276;28;20220;-72
2023/07/19 05:38:35;;;;;;;9.57;4.28;;;;;;;;;;4952245;28;20184;-73
2023/07/19 05:41:04;;;;;;;6.80;4.40;;;;;;;;;;4951646;28;20212;-73
2023/07/19 05:43:32;;;;;;;8.20;4.72;;;;;;;;;;4952650;28;20326;-72
2023/07/19 05:46:05;;;;;;;7.55;3.65;;;;;;;;;;4980705;28;20188;-72
2023/07/19 05:48:30;;;;;;;5.22;4.32;;;;;;;;;;4950495;28;20794;-73
2023/07/19 05:50:55;;;;;;;8.52;4.18;;;;;;;;;;4947337;28;20323;-72
2023/07/19 05:53:21;;;;;;;10.95;4.85;;;;;;;;;;4948551;28;20212;-73
2023/07/19 05:55:46;;;;;;;6.15;3.92;;;;;;;;;;4949134;28;20188;-72
2023/07/19 05:58:11;;;;;;;8.38;4.88;;;;;;;;;;4949826;28;20188;-73
2023/07/19 06:00:37;;;;;;;3.97;3.33;;;;;;;;;;4946374;28;20849;-73
2023/07/19 06:03:02;;;;;;;6.10;4.15;;;;;;;;;;4948414;28;20333;-73
2023/07/19 06:05:27;;;;;;;5.53;3.90;;;;;;;;;;4948242;28;20844;-73
2023/07/19 06:07:53;;;;;;;9.57;4.25;;;;;;;;;;4952121;28;20232;-73
2023/07/19 06:10:18;;;;;;;7.40;5.03;;;;;;;;;;4948486;28;20251;-73
2023/07/19 06:12:44;;;;;;;7.13;4.10;;;;;;;;;;4950559;28;20811;-73
2023/07/19 06:15:09;;;;;;;11.52;4.28;;;;;;;;;;4949758;28;20831;-73
2023/07/19 06:17:35;;;;;;;7.57;4.55;;;;;;;;;;4951756;28;20248;-72
2023/07/19 06:20:01;;;;;;;9.73;5.43;;;;;;;;;;4951256;28;20187;-73
2023/07/19 06:22:26;;;;;;;7.95;4.80;;;;;;;;;;4951488;28;20212;-73
2023/07/19 06:24:51;;;;;;;4.28;3.65;;;;;;;;;;4950967;28;20663;-72
2023/07/19 06:27:16;;;;;;;6.10;3.97;;;;;;;;;;4951317;28;20200;-72
2023/07/19 06:29:42;;;;;;;6.25;3.95;;;;;;;;;;4948508;28;20267;-72
2023/07/19 06:32:08;;;;;;;4.82;3.40;;;;;;;;;;4962908;23;20196;-67
2023/07/19 06:34:33;;;;;;;4.18;2.40;;;;;;;;;;4966500;28;21065;-67
2023/07/19 06:36:58;;;;;;;6.50;3.28;;;;;;;;;;4967035;28;20191;-66
2023/07/19 06:39:23;;;;;;;9.00;3.40;;;;;;;;;;4966425;28;20592;-66
2023/07/19 06:41:48;;;;;;;7.13;3.33;;;;;;;;;;4966238;28;20302;-67
2023/07/19 06:44:14;;;;;;;7.95;2.60;;;;;;;;;;4959614;28;20179;-66
2023/07/19 06:46:39;;;;;;;4.37;2.60;;;;;;;;;;4961615;28;20554;-67
2023/07/19 06:49:04;;;;;;;8.43;2.70;;;;;;;;;;4960345;28;20417;-67
2023/07/19 06:51:29;;;;;;;4.73;2.60;;;;;;;;;;4959384;28;20200;-67
2023/07/19 06:53:55;;;;;;;4.78;2.60;;;;;;;;;;4959407;28;20457;-66
2023/07/19 06:56:20;;;;;;;6.28;2.72;;;;;;;;;;4962333;28;20223;-66
2023/07/19 06:58:45;;;;;;;5.07;2.30;;;;;;;;;;4958914;28;20191;-66
2023/07/19 07:01:10;;;;;;;3.20;2.27;;;;;;;;;;4958070;28;20552;-66
2023/07/19 07:03:36;;;;;;;6.50;2.92;;;;;;;;;;4957590;28;20457;-66
2023/07/19 07:06:01;;;;;;;5.10;2.88;;;;;;;;;;4959477;28;20188;-66
2023/07/19 07:08:27;;;;;;;6.90;3.63;;;;;;;;;;4964050;28;20192;-66
2023/07/19 07:10:53;;;;;;;4.65;2.65;;;;;;;;;;4967710;28;20275;-66
2023/07/19 07:13:18;;;;;;;2.75;2.08;;;;;;;;;;4962835;28;20203;-66
2023/07/19 07:15:44;;;;;;;9.50;3.05;;;;;;;;;;4965588;28;20262;-66
2023/07/19 07:18:09;;;;;;;5.78;2.78;;;;;;;;;;4969449;28;20191;-66
2023/07/19 07:20:35;;;;;;;6.35;3.47;;;;;;;;;;4968550;28;20212;-66
2023/07/19 07:23:00;;;;;;;3.72;3.08;;;;;;;;;;4962368;28;20208;-65
2023/07/19 07:25:26;;;;;;;6.78;3.40;;;;;;;;;;4941387;28;20810;-67
2023/07/19 07:27:51;;;;;;;3.90;2.63;;;;;;;;;;4943826;28;20199;-66
2023/07/19 07:30:16;;;;;;;4.25;2.45;;;;;;;;;;4944030;28;20711;-67
2023/07/19 07:32:42;;;;;;;3.55;2.75;;;;;;;;;;4947170;28;20667;-65
2023/07/19 07:35:07;;;;;;;6.22;3.00;;;;;;;;;;4947914;28;20192;-66
2023/07/19 07:37:32;;;;;;;6.53;2.88;;;;;;;;;;4947381;28;20574;-66
2023/07/19 07:39:58;;;;;;;4.25;2.55;;;;;;;;;;4944291;28;20193;-66
2023/07/19 07:42:24;;;;;;;9.48;3.10;;;;;;;;;;4944384;28;20220;-66
2023/07/19 07:44:49;;;;;;;2.90;2.38;;;;;;;;;;4958382;28;20193;-66
2023/07/19 07:47:14;;;;;;;7.80;3.50;;;;;;;;;;4947091;28;20216;-66
2023/07/19 07:49:40;;;;;;;5.28;2.53;;;;;;;;;;4943844;28;21544;-66
2023/07/19 07:52:05;;;;;;;5.53;2.10;;;;;;;;;;4944346;28;20207;-66
2023/07/19 07:54:30;;;;;;;5.57;2.67;;;;;;;;;;4942109;28;21880;-66
2023/07/19 07:56:55;;;;;;;4.47;2.20;;;;;;;;;;4949854;28;20180;-68
2023/07/19 07:59:21;;;;;;;5.87;2.37;;;;;;;;;;4949091;28;20208;-67
2023/07/19 08:01:46;;;;;;;4.90;2.00;;;;;;;;;;4943938;28;20457;-66
2023/07/19 08:04:12;;;;;;;5.15;2.88;;;;;;;;;;4946316;28;21075;-66
2023/07/19 08:06:37;;;;;;;4.43;2.28;;;;;;;;;;4945967;28;20181;-67
2023/07/19 08:09:02;;;;;;;5.22;2.47;;;;;;;;;;4945036;28;20211;-67
2023/07/19 08:11:28;;;;;;;6.57;3.58;;;;;;;;;;4945709;28;21197;-67
2023/07/19 08:13:53;;;;;;;6.50;2.95;;;;;;;;;;4950108;28;20649;-67
2023/07/19 08:16:19;;;;;;;8.30;3.00;;;;;;;;;;4946291;28;20219;-67
2023/07/19 08:18:44;;;;;;;4.10;3.10;;;;;;;;;;4949254;28;20969;-67
2023/07/19 08:21:10;;;;;;;5.30;2.93;;;;;;;;;;4947345;28;20301;-67
2023/07/19 08:23:35;;;;;;;3.60;2.08;;;;;;;;;;4943877;28;20573;-67
2023/07/19 08:26:00;;;;;;;5.68;2.80;;;;;;;;;;4946738;28;20665;-66
2023/07/19 08:28:26;;;;;;;7.60;2.60;;;;;;;;;;4952257;28;20198;-67
2023/07/19 08:30:51;;;;;;;4.07;2.20;;;;;;;;;;4948403;28;20944;-66
2023/07/19 08:33:17;;;;;;;6.65;2.85;;;;;;;;;;4948859;28;21144;-66
2023/07/19 08:35:42;;;;;;;5.47;2.63;;;;;;;;;;4947651;28;20188;-66
2023/07/19 08:38:07;;;;;;;6.60;2.78;;;;;;;;;;4951253;28;20195;-66
2023/07/19 08:40:37;;;;;;;5.22;3.13;;;;;;;;;;4949044;28;20216;-66
2023/07/19 08:43:04;;;;;;;4.50;2.35;;;;;;;;;;4955118;28;20357;-66
2023/07/19 08:45:29;;;;;;;3.08;2.13;;;;;;;;;;4950018;28;20867;-66
2023/07/19 08:47:55;;;;;;;3.50;2.55;;;;;;;;;;4950670;28;20212;-66
2023/07/19 08:50:20;;;;;;;4.18;1.95;;;;;;;;;;4948160;28;20259;-67
2023/07/19 08:52:45;;;;;;;4.18;2.03;;;;;;;;;;4944749;28;21452;-66
2023/07/19 08:55:11;;;;;;;7.10;2.72;;;;;;;;;;4949072;28;20273;-66
2023/07/19 08:57:42;;;;;;;4.43;2.17;;;;;;;;;;4952992;28;20223;-66
2023/07/19 09:00:08;;;;;;;3.05;2.10;;;;;;;;;;4947654;28;20973;-66
2023/07/19 09:02:33;;;;;;;4.53;2.85;;;;;;;;;;4948448;28;21002;-66
2023/07/19 09:05:05;;;;;;;7.40;2.50;;;;;;;;;;4950138;28;20685;-66
2023/07/19 09:07:31;;;;;;;6.28;2.35;;;;;;;;;;4949186;28;20658;-66
2023/07/19 09:09:56;;;;;;;5.10;2.67;;;;;;;;;;4947495;28;20256;-67
2023/07/19 09:12:21;;;;;;;5.43;2.87;;;;;;;;;;4948616;28;20212;-67
2023/07/19 09:14:47;;;;;;;5.60;2.97;;;;;;;;;;4949788;28;21170;-66
2023/07/19 09:17:12;;;;;;;6.77;2.57;;;;;;;;;;4952496;28;20214;-66
2023/07/19 09:19:41;;;;;;;4.80;2.03;;;;;;;;;;4948413;28;20479;-66
2023/07/19 09:22:06;;;;;;;7.05;2.67;;;;;;;;;;4947032;28;20920;-66
2023/07/19 09:24:31;;;;;;;4.00;1.90;;;;;;;;;;4947373;28;20221;-65
2023/07/19 09:26:57;;;;;;;3.03;1.50;;;;;;;;;;4949167;28;20307;-65
2023/07/19 09:29:22;;;;;;;4.15;1.63;;;;;;;;;;4947832;28;20387;-66
2023/07/19 09:31:58;;;;;;;3.17;1.85;;;;;;;;;;4945850;28;20187;-66
2023/07/19 09:34:27;;;;;;;5.03;1.65;;;;;;;;;;4949063;28;20195;-66
2023/07/19 09:36:53;;;;;;;4.43;2.00;;;;;;;;;;4946910;28;20203;-67
2023/07/19 09:39:18;;;;;;;5.13;1.80;;;;;;;;;;4965147;28;20247;-67
2023/07/19 09:41:45;;;;;;;3.35;2.13;;;;;;;;;;4949114;28;20216;-67
2023/07/19 09:44:11;;;;;;;2.83;1.83;;;;;;;;;;4947744;28;20177;-67
2023/07/19 09:46:36;;;;;;;8.13;1.98;;;;;;;;;;4950683;28;20263;-67
2023/07/19 09:49:02;;;;;;;5.22;2.22;;;;;;;;;;4948239;28;20190;-66
2023/07/19 09:51:27;;;;;;;4.47;1.83;;;;;;;;;;4949110;28;20188;-66
2023/07/19 09:53:53;;;;;;;3.63;2.08;;;;;;;;;;4950476;28;20710;-67
2023/07/19 09:56:18;;;;;;;3.60;2.40;;;;;;;;;;4948348;28;20196;-65
2023/07/19 09:58:44;;;;;;;4.38;2.22;;;;;;;;;;4957576;28;20199;-68
2023/07/19 10:01:10;;;;;;;4.45;1.60;;;;;;;;;;4968865;28;20214;-67
2023/07/19 10:03:36;;;;;;;6.63;2.13;;;;;;;;;;4963288;28;20206;-68
2023/07/19 10:06:02;;;;;;;4.07;2.03;;;;;;;;;;4967301;28;20242;-68
2023/07/19 10:08:28;;;;;;;6.35;2.00;;;;;;;;;;4954929;28;20184;-66
2023/07/19 10:10:59;;;;;;;5.13;1.85;;;;;;;;;;4963120;28;20616;-67
2023/07/19 10:13:28;;;;;;;2.58;1.95;;;;;;;;;;4968626;28;20243;-66
2023/07/19 10:15:54;;;;;;;3.55;1.88;;;;;;;;;;4970309;28;20183;-66
2023/07/19 10:18:20;;;;;;;3.25;2.22;;;;;;;;;;4968470;28;20743;-67
2023/07/19 10:20:59;;;;;;;5.13;1.83;;;;;;;;;;4968020;28;20831;-66
2023/07/19 10:23:24;;;;;;;8.25;3.05;;;;;;;;;;4965818;28;20200;-66
2023/07/19 10:25:49;;;;;;;2.83;1.70;;;;;;;;;;4965471;28;20191;-66
2023/07/19 10:28:25;;;;;;;4.25;2.38;;;;;;;;;;4963149;28;20176;-66
2023/07/19 10:30:54;;;;;;;5.63;1.70;;;;;;;;;;4965120;28;20191;-68
2023/07/19 10:33:26;;;;;;;4.93;1.95;;;;;;;;;;4965706;28;20223;-67
2023/07/19 10:35:53;;;;;;;5.80;2.33;;;;;;;;;;4969296;28;20223;-67
2023/07/19 10:38:22;;;;;;;9.13;2.05;;;;;;;;;;4967370;28;20185;-67
2023/07/19 10:40:51;;;;;;;5.55;2.08;;;;;;;;;;4959711;28;20211;-67
2023/07/19 10:43:16;;;;;;;8.48;2.50;;;;;;;;;;4945169;28;20672;-67
2023/07/19 10:45:42;;;;;;;5.18;2.40;;;;;;;;;;4945461;28;20177;-67
2023/07/19 10:48:09;;;;;;;4.75;2.33;;;;;;;;;;4950415;28;20184;-67
2023/07/19 10:50:34;;;;;;;4.68;2.53;;;;;;;;;;4947104;28;20180;-67
2023/07/19 10:52:59;;;;;;;7.32;2.35;;;;;;;;;;4945636;28;20599;-67
2023/07/19 10:55:26;;;;;;;7.13;2.30;;;;;;;;;;4947703;28;20212;-67
2023/07/19 10:57:52;;;;;;;8.88;2.60;;;;;;;;;;4952375;28;20195;-66
2023/07/19 11:00:17;;;;;;;3.88;2.45;;;;;;;;;;4944323;28;20658;-67
2023/07/19 11:02:43;;;;;;;6.05;2.35;;;;;;;;;;4943904;28;20704;-67
2023/07/19 11:05:09;;;;;;;3.65;1.95;;;;;;;;;;4960900;28;20188;-67
2023/07/19 11:07:34;;;;;;;8.23;2.65;;;;;;;;;;4946612;28;21186;-67
2023/07/19 11:10:01;;;;;;;5.50;2.45;;;;;;;;;;4946235;28;20958;-67
2023/07/19 11:12:26;;;;;;;4.10;2.13;;;;;;;;;;4946120;28;20855;-67
2023/07/19 11:14:58;;;;;;;8.15;2.30;;;;;;;;;;4948569;28;20199;-67
2023/07/19 11:17:27;;;;;;;6.47;2.15;;;;;;;;;;4956751;28;20723;-67
2023/07/19 11:19:53;;;;;;;4.25;2.25;;;;;;;;;;4948829;28;21065;-67
2023/07/19 11:22:26;;;;;;;3.47;1.88;;;;;;;;;;4959847;28;20478;-67
2023/07/19 11:24:52;;;;;;;6.13;2.92;;;;;;;;;;4944618;28;20203;-66
2023/07/19 11:27:18;;;;;;;6.45;3.20;;;;;;;;;;4946690;28;20188;-66
2023/07/19 11:29:47;;;;;;;7.10;2.58;;;;;;;;;;4946477;28;20566;-66
2023/07/19 11:32:18;;;;;;;4.18;2.50;;;;;;;;;;4943481;28;20246;-66
2023/07/19 11:34:47;;;;;;;3.95;1.65;;;;;;;;;;4945531;28;20212;-66
2023/07/19 11:37:19;;;;;;;7.05;1.88;;;;;;;;;;4945676;28;20192;-67
2023/07/19 11:39:45;;;;;;;4.82;2.38;;;;;;;;;;4945555;28;20275;-66
2023/07/19 11:42:11;;;;;;;6.25;2.45;;;;;;;;;;4945401;28;20231;-67
2023/07/19 11:44:43;;;;;;;7.32;2.45;;;;;;;;;;4948315;28;20700;-67
2023/07/19 11:47:08;;;;;;;5.07;1.85;;;;;;;;;;4946520;28;20184;-67
2023/07/19 11:49:33;;;;;;;4.22;2.20;;;;;;;;;;4945607;28;20431;-67
2023/07/19 11:51:59;;;;;;;4.47;2.30;;;;;;;;;;4945647;28;21209;-67
2023/07/19 11:54:24;;;;;;;3.83;1.93;;;;;;;;;;4946408;28;20665;-67
2023/07/19 11:56:49;;;;;;;3.53;1.80;;;;;;;;;;4949680;28;20438;-66
2023/07/19 11:59:14;;;;;;;5.10;2.22;;;;;;;;;;4945924;28;20198;-67
2023/07/19 12:01:40;;;;;;;3.83;1.35;;;;;;;;;;4945513;28;20217;-68
2023/07/19 12:04:05;;;;;;;3.15;1.63;;;;;;;;;;4945325;28;20213;-67
2023/07/19 12:06:30;;;;;;;1.85;0.90;;;;;;;;;;4943838;28;20557;-67
2023/07/19 12:08:56;;;;;;;4.57;1.30;;;;;;;;;;4945033;28;20179;-67
2023/07/19 12:11:22;;;;;;;1.65;1.30;;;;;;;;;;4944500;28;20279;-67
2023/07/19 12:13:49;;;;;;;3.55;1.63;;;;;;;;;;4947348;28;20346;-67
2023/07/19 12:16:16;;;;;;;5.65;1.30;;;;;;;;;;4946697;28;20192;-69
2023/07/19 12:18:41;;;;;;;5.00;1.42;;;;;;;;;;4946036;28;20886;-67
2023/07/19 12:21:07;;;;;;;3.13;1.60;;;;;;;;;;4944823;28;20219;-67
2023/07/19 12:23:32;;;;;;;1.98;1.13;;;;;;;;;;4944196;28;20330;-67
2023/07/19 12:25:58;;;;;;;1.95;1.00;;;;;;;;;;4943885;28;20704;-66
2023/07/19 12:28:23;;;;;;;2.72;1.00;;;;;;;;;;4947847;28;20834;-66
2023/07/19 12:30:48;;;;;;;2.42;1.08;;;;;;;;;;4944075;28;20192;-67
2023/07/19 12:33:14;;;;;;;2.97;1.15;;;;;;;;;;4954410;23;20244;-71
2023/07/19 12:35:39;;;;;;;2.92;1.20;;;;;;;;;;4931746;28;20188;-73
2023/07/19 12:38:04;;;;;;;2.38;1.20;;;;;;;;;;4933824;28;20825;-72
2023/07/19 12:40:32;;;;;;;3.40;1.73;;;;;;;;;;4937320;28;20691;-72
2023/07/19 12:42:58;;;;;;;4.30;1.58;;;;;;;;;;4931463;28;20211;-72
2023/07/19 12:45:24;;;;;;;2.40;1.30;;;;;;;;;;4934528;28;20185;-72
2023/07/19 12:47:50;;;;;;;4.85;1.50;;;;;;;;;;4934691;28;20191;-72
2023/07/19 12:50:15;;;;;;;1.75;1.48;;;;;;;;;;4930919;28;20700;-72
2023/07/19 12:52:43;;;;;;;2.90;1.40;;;;;;;;;;4931381;28;20201;-72
2023/07/19 12:55:08;;;;;;;3.38;1.50;;;;;;;;;;4930931;28;20193;-72
2023/07/19 12:57:34;;;;;;;2.88;1.25;;;;;;;;;;4937934;28;20647;-72
2023/07/19 12:59:59;;;;;;;4.93;1.50;;;;;;;;;;4935355;28;20678;-72
2023/07/19 13:02:25;;;;;;;2.97;1.50;;;;;;;;;;4932293;28;20271;-72
2023/07/19 13:04:50;;;;;;;2.38;1.50;;;;;;;;;;4931267;28;20677;-72
2023/07/19 13:07:16;;;;;;;4.60;1.60;;;;;;;;;;4933299;28;21094;-72
2023/07/19 13:09:41;;;;;;;2.45;1.00;;;;;;;;;;4931757;28;20678;-72
2023/07/19 13:12:07;;;;;;;2.85;1.73;;;;;;;;;;4929981;28;20225;-71
2023/07/19 13:14:32;;;;;;;1.63;0.88;;;;;;;;;;4935925;28;20254;-72
2023/07/19 13:16:57;;;;;;;1.67;1.17;;;;;;;;;;4939333;28;20303;-72
2023/07/19 13:19:23;;;;;;;1.20;1.00;;;;;;;;;;4939337;28;20431;-71
2023/07/19 13:21:48;;;;;;;1.45;1.27;;;;;;;;;;4940179;28;20857;-72
2023/07/19 13:24:14;;;;;;;1.52;0.85;;;;;;;;;;4934287;28;20600;-72
2023/07/19 13:26:39;;;;;;;3.38;1.10;;;;;;;;;;4939258;28;20172;-72
2023/07/19 13:29:05;;;;;;;3.83;1.38;;;;;;;;;;4936141;28;20713;-72
2023/07/19 13:31:30;;;;;;;5.32;1.65;;;;;;;;;;4936542;28;20254;-72
2023/07/19 13:33:58;;;;;;;5.65;1.23;;;;;;;;;;4934188;28;20225;-72
2023/07/19 13:36:28;;;;;;;4.32;1.50;;;;;;;;;;4935635;28;20193;-71
2023/07/19 13:38:53;;;;;;;5.30;1.55;;;;;;;;;;4937362;28;20192;-72
2023/07/19 13:41:18;;;;;;;2.05;1.30;;;;;;;;;;4934645;28;20865;-72
2023/07/19 13:43:44;;;;;;;1.85;1.00;;;;;;;;;;4933954;28;20209;-72
2023/07/19 13:46:09;;;;;;;4.68;1.00;;;;;;;;;;4935834;28;20180;-71
2023/07/19 13:48:34;;;;;;;2.00;0.93;;;;;;;;;;4937017;28;20271;-72
2023/07/19 13:50:59;;;;;;;4.63;1.15;;;;;;;;;;4935945;28;20494;-72
2023/07/19 13:53:25;;;;;;;4.50;1.73;;;;;;;;;;4931867;28;20311;-72
2023/07/19 13:55:50;;;;;;;2.95;1.23;;;;;;;;;;4934242;28;20208;-72
2023/07/19 13:58:16;;;;;;;2.47;1.13;;;;;;;;;;4936461;28;20273;-72
2023/07/19 14:00:41;;;;;;;2.15;1.52;;;;;;;;;;4934474;28;20557;-74
2023/07/19 14:03:06;;;;;;;3.15;1.38;;;;;;;;;;4933778;28;20956;-73
2023/07/19 14:05:31;;;;;;;3.60;1.63;;;;;;;;;;4935038;28;20681;-73
2023/07/19 14:07:56;;;;;;;3.53;1.70;;;;;;;;;;4932285;28;20233;-73
2023/07/19 14:10:22;;;;;;;1.88;1.42;;;;;;;;;;4933163;28;20870;-74
2023/07/19 14:12:47;;;;;;;3.60;1.65;;;;;;;;;;4932721;28;20201;-73
2023/07/19 14:15:12;;;;;;;1.98;1.33;;;;;;;;;;4934837;28;20261;-73
2023/07/19 14:17:38;;;;;;;3.42;1.20;;;;;;;;;;4938831;28;20603;-73
2023/07/19 14:20:07;;;;;;;3.97;1.70;;;;;;;;;;4938410;28;20281;-71
2023/07/19 14:22:32;;;;;;;2.05;1.50;;;;;;;;;;4935775;28;20752;-72
2023/07/19 14:24:57;;;;;;;3.03;1.30;;;;;;;;;;4933123;28;20184;-72
2023/07/19 14:27:22;;;;;;;2.30;1.65;;;;;;;;;;4937599;28;20185;-72
2023/07/19 14:29:47;;;;;;;2.17;1.38;;;;;;;;;;4934107;28;20279;-72
2023/07/19 14:32:13;;;;;;;5.70;1.30;;;;;;;;;;4937614;28;20735;-72
2023/07/19 14:34:38;;;;;;;4.22;2.22;;;;;;;;;;4940488;28;20627;-71